Time;durP1;ratioP1;P1;durP2;ratioP2;P2;SDS_P1;SDS_P2;PMS_P1;PMS_P2;Temp;Humidity;BMP_temperature;BMP_pressure;BME280_temperature;BME280_humidity;BME280_pressure;Samples;Min_cycle;Max_cycle;Signal;HPM_P1;HPM_P2
2021/11/23 00:01:23;;;;;;;86.10;39.88;;;;;;;5.29;100.00;98449.41;5090564;28;20145;-76
2021/11/23 00:03:49;;;;;;;83.07;38.80;;;;;;;5.28;100.00;98453.19;5091646;28;20036;-74
2021/11/23 00:06:15;;;;;;;75.53;36.58;;;;;;;5.26;100.00;98450.69;5094040;28;20070;-75
2021/11/23 00:08:41;;;;;;;80.93;38.33;;;;;;;5.23;100.00;98440.34;5094086;28;20102;-75
2021/11/23 00:11:07;;;;;;;76.70;36.70;;;;;;;5.25;100.00;98451.78;5093719;28;20019;-76
2021/11/23 00:13:32;;;;;;;77.07;36.75;;;;;;;5.34;100.00;98453.00;5094058;28;20020;-76
2021/11/23 00:15:58;;;;;;;76.55;35.35;;;;;;;5.28;100.00;98448.56;5093781;28;20028;-75
2021/11/23 00:18:23;;;;;;;79.40;36.17;;;;;;;5.21;100.00;98452.53;5093778;28;20028;-74
2021/11/23 00:20:49;;;;;;;71.75;36.05;;;;;;;5.28;100.00;98453.19;5094162;28;20020;-75
2021/11/23 00:23:15;;;;;;;72.78;34.22;;;;;;;5.23;100.00;98451.19;5093986;28;20506;-74
2021/11/23 00:25:42;;;;;;;76.93;36.38;;;;;;;5.25;100.00;98449.06;5093711;28;20510;-75
2021/11/23 00:28:09;;;;;;;77.00;36.83;;;;;;;5.27;100.00;98463.19;5094460;28;20543;-74
2021/11/23 00:30:35;;;;;;;77.25;36.13;;;;;;;5.25;100.00;98449.06;5098036;28;20028;-82
2021/11/23 00:33:01;;;;;;;74.40;36.35;;;;;;;5.26;100.00;98458.03;5096516;28;20111;-74
2021/11/23 00:35:27;;;;;;;72.38;35.28;;;;;;;5.34;100.00;98458.44;5094041;28;20115;-74
2021/11/23 00:37:53;;;;;;;79.90;36.15;;;;;;;5.34;100.00;98465.75;5094159;28;20032;-75
2021/11/23 00:40:20;;;;;;;76.63;36.05;;;;;;;5.37;100.00;98471.50;5093422;28;20028;-76
2021/11/23 00:42:46;;;;;;;81.97;36.28;;;;;;;5.30;100.00;98461.88;5093832;28;20020;-75
2021/11/23 00:45:12;;;;;;;83.22;37.75;;;;;;;5.28;100.00;98472.16;5093995;28;20051;-75
2021/11/23 00:47:38;;;;;;;81.32;38.15;;;;;;;5.22;100.00;98460.44;5093819;28;20778;-75
2021/11/23 00:50:05;;;;;;;78.72;36.80;;;;;;;5.31;100.00;98475.19;5094085;28;20043;-74
2021/11/23 00:52:30;;;;;;;80.28;36.45;;;;;;;5.25;100.00;98478.09;5094681;28;20883;-74
2021/11/23 00:54:56;;;;;;;78.35;37.70;;;;;;;5.21;100.00;98472.31;5093227;28;20164;-75
2021/11/23 00:57:21;;;;;;;78.57;35.78;;;;;;;5.25;100.00;98469.94;5093665;28;20035;-75
2021/11/23 00:59:46;;;;;;;77.88;34.42;;;;;;;5.29;100.00;98476.53;5093103;28;20032;-76
2021/11/23 01:02:12;;;;;;;70.28;33.75;;;;;;;5.25;100.00;98481.63;5093343;28;20031;-77
2021/11/23 01:04:38;;;;;;;75.70;34.63;;;;;;;5.20;100.00;98481.53;5093469;28;20491;-75
2021/11/23 01:07:03;;;;;;;81.45;36.17;;;;;;;5.16;100.00;98487.72;5093497;28;20032;-75
2021/11/23 01:09:29;;;;;;;77.10;34.28;;;;;;;5.03;100.00;98482.59;5093216;28;20032;-75
2021/11/23 01:11:54;;;;;;;71.63;32.55;;;;;;;5.16;100.00;98477.69;5093391;28;20107;-77
2021/11/23 01:14:20;;;;;;;78.28;34.28;;;;;;;5.17;100.00;98500.19;5093114;28;20134;-76
2021/11/23 01:16:47;;;;;;;78.03;35.47;;;;;;;5.23;100.00;98499.22;5092597;28;20031;-76
2021/11/23 01:19:14;;;;;;;78.55;36.53;;;;;;;5.21;100.00;98496.72;5093041;28;20016;-76
2021/11/23 01:21:41;;;;;;;83.00;35.65;;;;;;;5.24;100.00;98501.66;5093378;28;20034;-75
2021/11/23 01:24:07;;;;;;;78.75;35.38;;;;;;;5.18;100.00;98504.53;5092956;28;20471;-75
2021/11/23 01:26:33;;;;;;;72.65;34.20;;;;;;;5.17;100.00;98502.91;5093043;28;20034;-74
2021/11/23 01:28:58;;;;;;;75.65;34.67;;;;;;;5.16;100.00;98503.97;5093003;28;20036;-74
2021/11/23 01:31:23;;;;;;;75.07;34.17;;;;;;;5.11;100.00;98496.56;5094615;28;20019;-79
2021/11/23 01:33:49;;;;;;;72.07;33.15;;;;;;;5.10;100.00;98500.38;5098443;28;20042;-78
2021/11/23 01:36:14;;;;;;;75.75;32.55;;;;;;;5.08;100.00;98493.53;5098889;28;20051;-75
2021/11/23 01:38:40;;;;;;;71.93;32.83;;;;;;;5.10;100.00;98502.25;5093286;28;20028;-75
2021/11/23 01:41:07;;;;;;;72.68;34.65;;;;;;;5.05;100.00;98504.84;5093581;28;20024;-77
2021/11/23 01:43:33;;;;;;;68.57;34.20;;;;;;;5.15;100.00;98496.91;5093767;28;20031;-74
2021/11/23 01:45:59;;;;;;;71.35;32.95;;;;;;;5.22;100.00;98508.41;5095190;28;20028;-74
2021/11/23 01:48:24;;;;;;;77.68;37.00;;;;;;;5.03;100.00;98494.28;5096014;28;20024;-77
2021/11/23 01:50:50;;;;;;;71.18;34.13;;;;;;;5.00;100.00;98500.19;5098073;28;20052;-77
2021/11/23 01:53:15;;;;;;;68.45;32.70;;;;;;;5.00;100.00;98500.19;5096931;28;20109;-76
2021/11/23 01:55:41;;;;;;;78.25;33.90;;;;;;;5.08;100.00;98502.47;5097618;28;20540;-77
2021/11/23 01:58:09;;;;;;;74.78;35.13;;;;;;;4.99;100.00;98498.53;5094156;28;20023;-77
2021/11/23 02:00:35;;;;;;;74.43;34.65;;;;;;;5.03;100.00;98499.69;5092398;28;20070;-76
2021/11/23 02:03:00;;;;;;;70.72;32.58;;;;;;;5.08;100.00;98507.91;5092210;28;20032;-76
2021/11/23 02:05:26;;;;;;;72.47;33.80;;;;;;;5.03;100.00;98515.97;5092296;28;20093;-75
2021/11/23 02:07:52;;;;;;;71.60;34.22;;;;;;;4.88;100.00;98507.59;5092242;28;20093;-74
2021/11/23 02:10:17;;;;;;;78.65;35.03;;;;;;;4.79;100.00;98514.47;5092071;28;20030;-76
2021/11/23 02:12:43;;;;;;;68.97;32.35;;;;;;;4.84;100.00;98511.84;5092316;28;20055;-75
2021/11/23 02:15:11;;;;;;;71.93;36.17;;;;;;;4.80;100.00;98513.38;5091957;28;20035;-74
2021/11/23 02:17:36;;;;;;;77.20;34.83;;;;;;;4.80;100.00;98516.91;5091931;28;20400;-74
2021/11/23 02:20:06;;;;;;;75.45;35.38;;;;;;;4.84;100.00;98511.84;5092268;28;20024;-75
2021/11/23 02:22:32;;;;;;;76.15;35.97;;;;;;;4.88;100.00;98510.28;5094227;28;20024;-79
2021/11/23 02:24:57;;;;;;;82.40;37.47;;;;;;;4.98;100.00;98518.56;5099001;28;20551;-76
2021/11/23 02:27:23;;;;;;;71.65;32.83;;;;;;;4.96;100.00;98512.59;5092117;28;20020;-75
2021/11/23 02:29:48;;;;;;;70.90;34.15;;;;;;;4.92;100.00;98519.56;5091792;28;20115;-75
2021/11/23 02:32:13;;;;;;;75.22;34.25;;;;;;;4.98;100.00;98518.56;5091708;28;20028;-74
2021/11/23 02:34:39;;;;;;;68.03;33.47;;;;;;;4.95;100.00;98521.78;5085027;28;20392;-76
2021/11/23 02:37:04;;;;;;;74.22;34.97;;;;;;;4.92;100.00;98526.88;5070759;28;20059;-74
2021/11/23 02:39:30;;;;;;;67.88;33.13;;;;;;;4.99;100.00;98525.66;5076825;28;20024;-75
2021/11/23 02:41:55;;;;;;;72.35;34.75;;;;;;;4.94;100.00;98522.03;5092168;28;20626;-75
2021/11/23 02:44:21;;;;;;;71.95;34.33;;;;;;;4.91;100.00;98534.19;5091209;28;20020;-76
2021/11/23 02:46:47;;;;;;;75.15;34.92;;;;;;;4.93;100.00;98529.34;5091189;28;20035;-74
2021/11/23 02:49:13;;;;;;;66.47;32.10;;;;;;;4.96;100.00;98526.13;5090755;28;20051;-75
2021/11/23 02:51:40;;;;;;;65.85;31.60;;;;;;;4.93;100.00;98526.63;5084795;28;20047;-81
2021/11/23 02:54:06;;;;;;;77.68;35.20;;;;;;;4.94;100.00;98533.69;5070408;28;20044;-76
2021/11/23 02:56:33;;;;;;;96.15;42.72;;;;;;;4.91;100.00;98534.19;5070702;28;20033;-75
2021/11/23 02:58:58;;;;;;;88.20;40.20;;;;;;;4.95;100.00;98534.53;5070818;28;20473;-76
2021/11/23 03:01:26;;;;;;;83.85;35.65;;;;;;;4.95;100.00;98548.88;5070626;28;20473;-75
2021/11/23 03:03:52;;;;;;;75.20;35.75;;;;;;;4.98;100.00;98542.97;5068990;28;20033;-75
2021/11/23 03:06:20;;;;;;;70.25;32.55;;;;;;;5.05;100.00;98543.63;5070459;28;20115;-76
2021/11/23 03:08:47;;;;;;;70.03;30.23;;;;;;;4.99;100.00;98541.91;5069024;28;20035;-75
2021/11/23 03:11:14;;;;;;;65.63;30.52;;;;;;;4.96;100.00;98550.53;5070564;28;20120;-75
2021/11/23 03:13:39;;;;;;;63.15;30.33;;;;;;;4.99;100.00;98549.22;5070458;28;20021;-75
2021/11/23 03:16:06;;;;;;;67.68;32.53;;;;;;;4.92;100.00;98548.56;5070459;28;20039;-75
2021/11/23 03:18:31;;;;;;;74.22;32.22;;;;;;;4.83;100.00;98548.13;5070219;28;20020;-74
2021/11/23 03:20:57;;;;;;;78.63;34.83;;;;;;;4.87;100.00;98549.28;5070317;28;20583;-75
2021/11/23 03:23:23;;;;;;;65.80;33.58;;;;;;;4.85;100.00;98546.00;5070605;28;20115;-75
2021/11/23 03:25:49;;;;;;;74.10;33.65;;;;;;;4.93;100.00;98552.91;5070650;28;20028;-75
2021/11/23 03:28:14;;;;;;;65.18;31.67;;;;;;;5.02;100.00;98557.69;5077127;28;20035;-75
2021/11/23 03:30:40;;;;;;;66.60;33.28;;;;;;;4.95;100.00;98559.72;5090358;28;20043;-75
2021/11/23 03:33:08;;;;;;;63.72;32.17;;;;;;;5.08;100.00;98567.53;5090541;28;20378;-75
2021/11/23 03:35:37;;;;;;;69.93;32.75;;;;;;;5.01;100.00;98566.06;5091710;28;20024;-76
2021/11/23 03:38:05;;;;;;;69.97;33.08;;;;;;;4.99;100.00;98571.72;5090877;28;20031;-75
2021/11/23 03:40:31;;;;;;;67.88;31.80;;;;;;;4.99;100.00;98574.44;5094684;28;20053;-75
2021/11/23 03:42:57;;;;;;;67.80;32.72;;;;;;;5.01;100.00;98556.03;5095238;28;20024;-76
2021/11/23 03:45:23;;;;;;;66.72;32.60;;;;;;;5.15;100.00;98584.50;5096737;28;20081;-76
2021/11/23 03:47:49;;;;;;;60.22;30.70;;;;;;;5.10;100.00;98579.00;5098240;28;20036;-76
2021/11/23 03:50:16;;;;;;;65.93;31.17;;;;;;;5.12;100.00;98579.56;5095130;28;20061;-76
2021/11/23 03:52:44;;;;;;;66.20;30.58;;;;;;;5.04;100.00;98576.44;5094589;28;20048;-75
2021/11/23 03:55:14;;;;;;;67.15;30.98;;;;;;;4.99;100.00;98585.28;5094471;28;20039;-77
2021/11/23 03:57:41;;;;;;;72.55;31.85;;;;;;;4.94;100.00;98579.78;5094449;28;20024;-75
2021/11/23 04:00:08;;;;;;;62.17;30.27;;;;;;;4.96;100.00;98585.78;5094231;28;20028;-75
2021/11/23 04:02:34;;;;;;;64.93;30.65;;;;;;;4.90;100.00;98586.75;5093271;28;20024;-75
2021/11/23 04:04:59;;;;;;;67.68;32.08;;;;;;;4.81;100.00;98593.63;5094006;28;20043;-76
2021/11/23 04:07:25;;;;;;;82.13;33.90;;;;;;;4.86;100.00;98586.41;5094522;28;20035;-76
2021/11/23 04:09:50;;;;;;;68.80;32.17;;;;;;;4.88;100.00;98588.88;5094440;28;20051;-76
2021/11/23 04:12:16;;;;;;;68.43;33.15;;;;;;;4.82;100.00;98595.28;5097291;28;20091;-79
2021/11/23 04:14:42;;;;;;;69.65;30.75;;;;;;;4.90;100.00;98585.91;5101593;28;20126;-81
2021/11/23 04:17:09;;;;;;;69.55;30.42;;;;;;;4.96;100.00;98593.91;5102391;28;20040;-77
2021/11/23 04:19:35;;;;;;;65.20;31.20;;;;;;;4.99;100.00;98596.13;5101091;28;20020;-75
2021/11/23 04:22:01;;;;;;;68.97;32.88;;;;;;;4.97;100.00;98597.44;5095177;28;20629;-76
2021/11/23 04:24:27;;;;;;;78.43;33.60;;;;;;;4.94;100.00;98601.47;5095290;28;20040;-77
2021/11/23 04:26:52;;;;;;;70.40;33.00;;;;;;;5.03;100.00;98599.16;5076321;28;20040;-76
2021/11/23 04:29:19;;;;;;;64.43;31.90;;;;;;;4.96;100.00;98612.03;5074096;28;20071;-75
2021/11/23 04:31:44;;;;;;;67.85;31.98;;;;;;;5.00;100.00;98605.09;5074052;28;20489;-77
2021/11/23 04:34:10;;;;;;;69.63;33.60;;;;;;;4.93;100.00;98613.38;5073399;28;20036;-76
2021/11/23 04:36:37;;;;;;;71.28;34.00;;;;;;;4.96;100.00;98612.03;5073692;28;20028;-75
2021/11/23 04:39:03;;;;;;;57.70;29.48;;;;;;;4.99;100.00;98606.97;5073332;28;20024;-76
2021/11/23 04:41:29;;;;;;;65.93;30.45;;;;;;;4.92;100.00;98616.34;5073287;28;20035;-75
2021/11/23 04:43:55;;;;;;;61.38;29.02;;;;;;;4.93;100.00;98612.53;5072659;28;20029;-76
2021/11/23 04:46:22;;;;;;;56.95;27.73;;;;;;;4.95;100.00;98619.34;5073044;28;20024;-75
2021/11/23 04:48:47;;;;;;;56.28;29.35;;;;;;;4.92;100.00;98619.03;5072980;28;20039;-79
2021/11/23 04:51:13;;;;;;;59.80;29.40;;;;;;;4.82;100.00;98620.47;5071666;28;20033;-75
2021/11/23 04:53:39;;;;;;;61.25;28.80;;;;;;;4.82;100.00;98615.03;5073175;28;20060;-75
2021/11/23 04:56:04;;;;;;;55.90;28.05;;;;;;;4.88;100.00;98620.59;5072989;28;20040;-76
2021/11/23 04:58:30;;;;;;;60.90;29.08;;;;;;;4.86;100.00;98623.53;5072880;28;20122;-75
2021/11/23 05:00:55;;;;;;;58.08;28.52;;;;;;;4.74;100.00;98625.44;5071305;28;20388;-75
2021/11/23 05:03:21;;;;;;;59.00;29.02;;;;;;;4.79;100.00;98629.06;5075606;28;20027;-76
2021/11/23 05:05:46;;;;;;;63.95;33.53;;;;;;;4.65;100.00;98624.19;5093096;28;20035;-74
2021/11/23 05:08:11;;;;;;;64.07;30.92;;;;;;;4.63;100.00;98629.03;5091173;28;20032;-75
2021/11/23 05:10:37;;;;;;;64.50;28.60;;;;;;;4.60;100.00;98624.94;5092464;28;20369;-75
2021/11/23 05:13:02;;;;;;;64.20;29.77;;;;;;;4.57;100.00;98625.41;5092755;28;20380;-76
2021/11/23 05:15:28;;;;;;;65.65;31.98;;;;;;;4.55;100.00;98621.28;5091322;28;20857;-75
2021/11/23 05:17:53;;;;;;;59.63;30.95;;;;;;;4.58;100.00;98624.31;5092437;28;20481;-75
2021/11/23 05:20:19;;;;;;;67.85;30.98;;;;;;;4.60;100.00;98619.50;5092969;28;20489;-76
2021/11/23 05:22:44;;;;;;;59.47;30.48;;;;;;;4.55;100.00;98637.53;5093329;28;20035;-75
2021/11/23 05:25:10;;;;;;;64.25;31.23;;;;;;;4.54;100.00;98635.91;5094608;28;20060;-75
2021/11/23 05:27:35;;;;;;;65.70;30.92;;;;;;;4.60;100.00;98629.53;5092756;28;20027;-77
2021/11/23 05:30:02;;;;;;;56.47;29.33;;;;;;;4.59;100.00;98627.88;5092770;28;20027;-75
2021/11/23 05:32:28;;;;;;;64.30;30.08;;;;;;;4.58;100.00;98629.75;5091469;28;20043;-75
2021/11/23 05:34:53;;;;;;;64.13;30.08;;;;;;;4.62;100.00;98643.63;5092878;28;20036;-75
2021/11/23 05:37:19;;;;;;;60.28;29.52;;;;;;;4.55;100.00;98637.53;5092502;28;20028;-74
2021/11/23 05:39:45;;;;;;;62.67;30.80;;;;;;;4.54;100.00;98641.31;5092426;28;20024;-75
2021/11/23 05:42:10;;;;;;;57.72;28.20;;;;;;;4.39;100.00;98633.69;5093149;28;20038;-75
2021/11/23 05:44:36;;;;;;;58.67;27.80;;;;;;;4.44;100.00;98646.53;5092576;28;20484;-77
2021/11/23 05:47:03;;;;;;;55.70;28.17;;;;;;;4.51;100.00;98649.94;5092834;28;20020;-75
2021/11/23 05:49:28;;;;;;;51.72;27.00;;;;;;;4.41;100.00;98653.25;5092574;28;20024;-76
2021/11/23 05:51:58;;;;;;;62.47;29.60;;;;;;;4.36;100.00;98661.25;5092631;28;20116;-75
2021/11/23 05:54:24;;;;;;;61.22;28.23;;;;;;;4.31;100.00;98656.56;5097256;28;20138;-75
2021/11/23 05:56:49;;;;;;;64.28;29.52;;;;;;;4.17;100.00;98663.25;5093611;28;20086;-75
2021/11/23 05:59:15;;;;;;;55.92;27.33;;;;;;;4.19;100.00;98653.03;5096495;28;20090;-76
2021/11/23 06:01:44;;;;;;;55.10;28.42;;;;;;;4.17;100.00;98663.25;5096365;28;20039;-75
2021/11/23 06:04:10;;;;;;;52.50;25.85;;;;;;;4.16;100.00;98656.22;5093285;28;20077;-75
2021/11/23 06:06:37;;;;;;;54.35;26.25;;;;;;;4.17;100.00;98662.44;5093576;28;20089;-75
2021/11/23 06:09:05;;;;;;;55.92;27.45;;;;;;;4.12;100.00;98674.00;5095342;28;20028;-76
2021/11/23 06:11:31;;;;;;;51.22;26.58;;;;;;;4.10;100.00;98665.25;5096708;28;20484;-74
2021/11/23 06:13:56;;;;;;;52.33;26.08;;;;;;;4.15;100.00;98680.81;5096761;28;20045;-82
2021/11/23 06:16:22;;;;;;;52.28;25.40;;;;;;;4.33;100.00;98684.22;5096144;28;20034;-73
2021/11/23 06:18:47;;;;;;;50.45;25.02;;;;;;;4.36;100.00;98690.19;5095809;28;20035;-73
2021/11/23 06:21:13;;;;;;;58.20;27.55;;;;;;;4.42;100.00;98695.50;5093226;28;20051;-73
2021/11/23 06:23:38;;;;;;;55.55;25.67;;;;;;;4.45;100.00;98694.22;5092578;28;20503;-74
2021/11/23 06:26:04;;;;;;;58.22;26.73;;;;;;;4.39;100.00;98692.44;5091661;28;20436;-75
2021/11/23 06:28:29;;;;;;;56.35;26.13;;;;;;;4.48;100.00;98702.66;5091777;28;20102;-75
2021/11/23 06:30:55;;;;;;;57.42;26.15;;;;;;;4.63;100.00;98710.31;5092301;28;20097;-74
2021/11/23 06:33:21;;;;;;;52.28;25.38;;;;;;;4.66;100.00;98718.78;5093284;28;20028;-75
2021/11/23 06:35:47;;;;;;;46.75;24.65;;;;;;;4.68;100.00;98719.38;5093878;28;20392;-76
2021/11/23 06:38:16;;;;;;;55.95;25.80;;;;;;;4.76;100.00;98721.69;5092565;28;20032;-85
2021/11/23 06:40:42;;;;;;;56.85;27.50;;;;;;;4.71;100.00;98715.34;5092314;28;20476;-84
2021/11/23 06:43:10;;;;;;;48.58;24.40;;;;;;;4.86;100.00;98731.94;5096457;28;20020;-83
2021/11/23 06:45:37;;;;;;;46.80;24.73;;;;;;;4.87;100.00;98728.16;5104912;28;20029;-84
2021/11/23 06:48:04;;;;;;;55.70;28.23;;;;;;;4.93;100.00;98743.47;5092173;28;20043;-87
2021/11/23 06:50:34;;;;;;;54.78;28.73;;;;;;;4.95;100.00;98748.66;5090223;28;20050;-84
2021/11/23 06:53:04;;;;;;;53.00;26.70;;;;;;;5.04;100.00;98750.75;5095185;28;20036;-83
2021/11/23 06:55:30;;;;;;;48.95;24.95;;;;;;;5.17;100.00;98764.00;5093200;28;20056;-89
2021/11/23 06:57:55;;;;;;;45.83;23.55;;;;;;;5.22;100.00;98764.13;5094200;28;20020;-88
2021/11/23 07:00:21;;;;;;;46.45;22.27;;;;;;;5.31;100.00;98759.97;5093980;28;20119;-85
2021/11/23 07:02:47;;;;;;;42.28;22.88;;;;;;;5.30;100.00;98761.03;5094054;28;20023;-89
2021/11/23 07:05:12;;;;;;;39.70;21.85;;;;;;;5.41;100.00;98764.78;5095884;28;20370;-88
2021/11/23 07:07:38;;;;;;;41.80;22.33;;;;;;;5.37;100.00;98756.28;5098057;28;20062;-84
2021/11/23 07:10:09;;;;;;;40.85;21.23;;;;;;;5.60;100.00;98773.53;5105490;28;20028;-86
2021/11/23 07:12:36;;;;;;;34.25;19.70;;;;;;;5.64;100.00;98780.13;5094659;28;20035;-86
2021/11/23 07:15:02;;;;;;;39.47;20.55;;;;;;;5.77;100.00;98788.78;5092565;28;20042;-84
2021/11/23 07:17:27;;;;;;;40.20;19.90;;;;;;;5.80;100.00;98782.84;5091506;28;20024;-86
2021/11/23 07:19:53;;;;;;;36.80;20.55;;;;;;;5.83;100.00;98785.09;5091086;28;20024;-82
2021/11/23 07:22:19;;;;;;;34.53;19.67;;;;;;;5.86;100.00;98789.22;5092457;28;20028;-87
2021/11/23 07:24:44;;;;;;;33.38;19.65;;;;;;;5.96;100.00;98786.69;5090806;28;20169;-89
2021/11/23 07:27:10;;;;;;;40.72;22.42;;;;;;;6.07;100.00;98783.09;5092322;28;20495;-88
2021/11/23 07:29:35;;;;;;;32.53;19.40;;;;;;;6.11;100.00;98791.59;5092057;28;20039;-87
2021/11/23 07:32:03;;;;;;;39.28;21.13;;;;;;;6.24;100.00;98799.38;5091777;28;20016;-86
2021/11/23 07:34:28;;;;;;;34.25;19.83;;;;;;;6.23;100.00;98793.16;5094653;28;20115;-85
2021/11/23 07:36:54;;;;;;;36.05;19.73;;;;;;;6.17;100.00;98799.56;5093861;28;20097;-80
2021/11/23 07:39:20;;;;;;;35.40;19.65;;;;;;;6.19;100.00;98802.88;5093855;28;20025;-78
2021/11/23 07:41:45;;;;;;;35.03;19.60;;;;;;;6.29;100.00;98797.59;5116791;28;21453;-86
2021/11/23 07:44:11;;;;;;;33.85;19.45;;;;;;;6.35;100.00;98793.06;5131657;28;20008;-84
2021/11/23 07:46:37;;;;;;;36.53;22.30;;;;;;;6.39;100.00;98805.91;5116990;28;20077;-86
2021/11/23 07:49:03;;;;;;;45.30;23.70;;;;;;;6.50;100.00;98797.91;5124692;28;20022;-87
2021/11/23 07:51:29;;;;;;;47.40;25.65;;;;;;;6.57;100.00;98807.56;5137778;27;20095;-84
2021/11/23 07:53:55;;;;;;;47.25;25.00;;;;;;;6.55;100.00;98808.88;5138221;28;20050;-83
2021/11/23 07:56:20;;;;;;;41.60;21.35;;;;;;;6.55;100.00;98800.72;5137626;28;20012;-81
2021/11/23 07:58:46;;;;;;;40.65;22.67;;;;;;;6.55;100.00;98804.25;5137730;28;20071;-82
2021/11/23 08:01:12;;;;;;;39.97;19.52;;;;;;;6.51;100.00;98805.00;5138088;28;20015;-75
2021/11/23 08:03:38;;;;;;;33.83;18.25;;;;;;;6.66;100.00;98808.78;5137823;28;20057;-87
2021/11/23 08:06:07;;;;;;;40.25;19.30;;;;;;;6.82;100.00;98816.09;5137087;28;20027;-83
2021/11/23 08:08:33;;;;;;;26.95;15.65;;;;;;;6.92;100.00;98816.22;5137480;28;20018;-83
2021/11/23 08:11:00;;;;;;;22.98;13.13;;;;;;;6.91;100.00;98822.75;5137973;28;20011;-80
2021/11/23 08:13:25;;;;;;;29.85;13.05;;;;;;;7.13;100.00;98825.50;5124715;28;20046;-79
2021/11/23 08:15:51;;;;;;;20.30;10.20;;;;;;;7.24;100.00;98827.25;5115435;28;20052;-84
2021/11/23 08:18:16;;;;;;;16.50;9.35;;;;;;;7.29;100.00;98826.53;5116663;28;20042;-83
2021/11/23 08:20:43;;;;;;;17.45;9.20;;;;;;;7.38;100.00;98834.00;5117275;28;20067;-86
2021/11/23 08:23:09;;;;;;;15.30;7.55;;;;;;;7.51;96.52;98839.06;5117217;28;20064;-84
2021/11/23 08:25:37;;;;;;;13.23;6.65;;;;;;;7.43;92.27;98836.75;5119444;28;20024;-86
2021/11/23 08:28:03;;;;;;;14.05;6.82;;;;;;;7.50;92.96;98831.97;5120011;28;20019;-86
2021/11/23 08:30:29;;;;;;;12.40;6.45;;;;;;;7.45;94.03;98834.63;5117812;28;20024;-83
2021/11/23 08:32:54;;;;;;;14.50;7.72;;;;;;;7.64;91.21;98842.47;5117789;28;20081;-87
2021/11/23 08:35:19;;;;;;;12.63;6.68;;;;;;;7.40;89.49;98837.28;5114477;28;20028;-78
2021/11/23 08:37:45;;;;;;;15.75;6.38;;;;;;;7.49;88.22;98846.63;5114398;28;20036;-86
2021/11/23 08:40:11;;;;;;;11.90;7.35;;;;;;;7.40;89.08;98848.16;5115643;28;20044;-85
2021/11/23 08:42:37;;;;;;;11.75;6.03;;;;;;;7.49;88.15;98852.06;5117464;28;20004;-83
2021/11/23 08:45:04;;;;;;;11.52;5.82;;;;;;;7.62;87.62;98850.03;5119012;28;20015;-82
2021/11/23 08:47:30;;;;;;;12.05;6.00;;;;;;;7.67;86.47;98845.50;5119217;28;20016;-89
2021/11/23 08:49:56;;;;;;;10.25;5.43;;;;;;;7.51;84.07;98855.38;5113304;28;20041;-76
2021/11/23 08:52:22;;;;;;;11.65;5.93;;;;;;;7.72;84.67;98855.63;5119130;28;20075;-86
2021/11/23 08:54:48;;;;;;;10.55;5.40;;;;;;;7.44;84.46;98846.59;5116900;28;20016;-77
2021/11/23 08:57:14;;;;;;;11.75;5.85;;;;;;;7.54;84.84;98859.50;5115864;28;20059;-83
2021/11/23 08:59:42;;;;;;;10.60;4.90;;;;;;;7.57;83.36;98869.06;5119341;28;20028;-85
2021/11/23 09:02:10;;;;;;;8.38;4.63;;;;;;;7.41;82.37;98863.41;5113702;28;20012;-85
2021/11/23 09:04:35;;;;;;;10.15;4.95;;;;;;;7.13;83.33;98858.13;5118461;28;20099;-85
2021/11/23 09:07:04;;;;;;;9.48;4.80;;;;;;;7.00;84.11;98874.81;5110661;28;20059;-86
2021/11/23 09:09:31;;;;;;;9.90;4.65;;;;;;;6.90;83.43;98870.03;5109705;28;20061;-79
2021/11/23 09:12:01;;;;;;;9.85;4.82;;;;;;;6.97;83.54;98867.16;5111596;28;20030;-87
2021/11/23 09:14:26;;;;;;;9.15;5.43;;;;;;;7.09;82.96;98872.47;5112624;28;20024;-76
2021/11/23 09:16:52;;;;;;;7.80;4.32;;;;;;;7.35;81.11;98872.59;5111930;28;20032;-83
2021/11/23 09:19:18;;;;;;;10.25;5.50;;;;;;;7.51;81.37;98866.28;5110210;28;20020;-86
2021/11/23 09:21:43;;;;;;;8.50;4.88;;;;;;;7.72;77.76;98870.06;5107809;28;20039;-83
2021/11/23 09:24:09;;;;;;;8.93;4.88;;;;;;;8.06;78.99;98867.97;5119575;28;20613;-86
2021/11/23 09:26:35;;;;;;;10.82;4.60;;;;;;;7.87;77.34;98870.22;5117305;28;20016;-81
2021/11/23 09:29:01;;;;;;;10.02;5.07;;;;;;;8.38;74.99;98863.44;5118687;28;20035;-83
2021/11/23 09:31:27;;;;;;;8.88;5.05;;;;;;;8.49;74.54;98884.25;5112827;28;20087;-88
2021/11/23 09:33:53;;;;;;;7.53;4.60;;;;;;;8.41;73.63;98887.47;5116650;28;20043;-90
2021/11/23 09:36:19;;;;;;;7.53;4.47;;;;;;;8.15;74.76;98882.78;5115264;28;20046;-85
2021/11/23 09:38:44;;;;;;;10.43;4.70;;;;;;;7.88;75.34;98877.34;5115136;28;20058;-91
2021/11/23 09:41:10;;;;;;;8.77;5.18;;;;;;;7.99;74.45;98878.25;5115171;28;20024;-81
2021/11/23 09:43:37;;;;;;;8.32;4.05;;;;;;;8.34;73.72;98875.09;5114764;28;20044;-87
2021/11/23 09:46:03;;;;;;;9.65;4.97;;;;;;;8.70;72.21;98870.81;5117442;28;20033;-85
2021/11/23 09:48:30;;;;;;;7.85;5.18;;;;;;;8.72;73.01;98882.25;5117332;28;20095;-80
2021/11/23 09:50:55;;;;;;;7.20;4.35;;;;;;;10.11;67.22;98882.50;5118490;28;20018;-81
2021/11/23 09:53:21;;;;;;;11.75;4.63;;;;;;;11.26;63.29;98881.75;5119366;28;20032;-79
2021/11/23 09:55:51;;;;;;;6.53;4.55;;;;;;;11.30;61.38;98868.31;5117537;28;20012;-82
2021/11/23 09:58:17;;;;;;;6.97;4.15;;;;;;;12.00;58.49;98874.66;5118460;28;20004;-87
2021/11/23 10:00:45;;;;;;;6.28;3.95;;;;;;;12.37;57.03;98880.50;5117471;28;20034;-84
2021/11/23 10:03:15;;;;;;;6.25;4.07;;;;;;;11.55;58.78;98875.66;5116878;28;20042;-87
2021/11/23 10:05:43;;;;;;;6.68;4.22;;;;;;;10.86;61.33;98870.03;5117767;28;20032;-82
2021/11/23 10:08:19;;;;;;;6.82;3.85;;;;;;;11.60;59.19;98867.41;5116295;28;20020;-86
2021/11/23 10:10:51;;;;;;;11.38;5.10;;;;;;;12.19;57.16;98876.47;5115259;28;20024;-87
2021/11/23 10:13:20;;;;;;;7.20;4.25;;;;;;;12.51;56.91;98858.72;5114583;28;20023;-89
2021/11/23 10:15:47;;;;;;;7.13;4.32;;;;;;;12.57;56.33;98861.13;5112975;28;20040;-83
2021/11/23 10:18:19;;;;;;;8.40;4.57;;;;;;;11.89;57.69;98856.63;5111638;28;20012;-78
2021/11/23 10:20:48;;;;;;;6.90;4.35;;;;;;;12.14;56.53;98851.00;5116930;28;20028;-87
2021/11/23 10:23:47;;;;;;;8.07;4.68;;;;;;;11.40;58.31;98854.59;5119230;28;20039;-86
2021/11/23 10:26:14;;;;;;;6.95;4.35;;;;;;;11.93;57.67;98838.53;5083058;28;20078;-89
2021/11/23 10:28:44;;;;;;;10.73;5.05;;;;;;;11.67;57.46;98835.88;5118374;28;20072;-84
2021/11/23 10:31:11;;;;;;;7.63;4.90;;;;;;;11.69;57.88;98830.09;5107447;28;20055;-82
2021/11/23 10:33:38;;;;;;;7.93;4.53;;;;;;;11.85;58.34;98833.63;5099211;28;20027;-87
2021/11/23 10:36:09;;;;;;;8.25;4.38;;;;;;;12.88;54.11;98834.25;5093996;28;20027;-86
2021/11/23 10:38:38;;;;;;;8.95;4.60;;;;;;;12.37;55.37;98831.13;5112338;28;20008;-92
2021/11/23 10:41:11;;;;;;;8.27;4.57;;;;;;;12.50;56.16;98829.66;5114469;28;20054;-83
2021/11/23 10:43:41;;;;;;;7.03;4.57;;;;;;;12.38;55.94;98824.50;5137463;28;20012;-90
2021/11/23 10:46:19;;;;;;;9.13;5.43;;;;;;;12.78;55.19;98820.63;5137430;28;20045;-84
2021/11/23 10:48:53;;;;;;;6.95;4.30;;;;;;;12.23;55.29;98819.13;5134660;28;20027;-85
2021/11/23 10:51:20;;;;;;;8.38;4.25;;;;;;;12.19;54.91;98809.81;5120156;28;20034;-85
2021/11/23 10:53:47;;;;;;;7.47;4.50;;;;;;;11.46;57.43;98831.56;5116783;28;20070;-84
2021/11/23 10:56:15;;;;;;;8.80;5.10;;;;;;;11.30;58.08;98827.25;5112767;28;20031;-90
2021/11/23 10:58:44;;;;;;;6.43;4.22;;;;;;;11.32;57.47;98821.47;5115700;28;20071;-81
2021/11/23 11:01:11;;;;;;;7.55;4.38;;;;;;;11.08;61.19;98824.00;5095518;28;20077;-83
2021/11/23 11:03:38;;;;;;;6.25;4.32;;;;;;;10.71;60.49;98818.88;5091933;28;21068;-77
2021/11/23 11:06:05;;;;;;;10.10;4.55;;;;;;;9.62;62.84;98821.94;5091204;28;20389;-76
2021/11/23 11:08:49;;;;;;;8.95;4.45;;;;;;;10.75;61.05;98820.75;5092681;28;20451;-74
2021/11/23 11:11:19;;;;;;;8.02;4.55;;;;;;;10.21;61.47;98809.53;5086858;28;20038;-75
2021/11/23 11:13:52;;;;;;;9.25;5.10;;;;;;;10.81;60.67;98804.34;5090410;28;20023;-74
2021/11/23 11:16:21;;;;;;;8.00;4.85;;;;;;;10.06;63.73;98801.28;5089380;28;20032;-79
2021/11/23 11:19:16;;;;;;;8.20;4.43;;;;;;;10.42;61.78;98809.56;5090109;28;20119;-79